Calcutta, Ohio
Current Conditions -  °F | °C
As of 4:47 PM on Sunday 21 Dec 2014 (Local Time) from KBVI Reporting Station
Overcast Overcast  
Wind Chill: 30°   Ceiling: 2300
Heat Index: 30°   Visibility: 10mi
Dew Point: 23°   Wind: 0mph
Humidity: 75%   Direction: NA
Pressure: 30.24"   Gusts: NA
Location:  40.6788°N, 80.5838°W
Report Text: KBVI 212147Z 00000KT 10SM OVC023 M01/M05 A3024 RMK LAST
Loading
Personal Weather Stations






























Interactive Weather Map New forecast layout! Learn more

10-Day Weather Forecast

Advertisements
Track Severe Weather on mobile